Time;durP1;ratioP1;P1;durP2;ratioP2;P2;SDS_P1;SDS_P2;PMS_P1;PMS_P2;Temp;Humidity;BMP_temperature;BMP_pressure;BME280_temperature;BME280_humidity;BME280_pressure;Samples;Min_cycle;Max_cycle;Signal;HPM_P1;HPM_P2
2022/12/11 00:00:39;;;;;;;84.65;32.53;;;;;;;;;;5074308;28;20195;-65
2022/12/11 00:03:06;;;;;;;89.80;30.08;;;;;;;;;;5074224;28;20336;-65
2022/12/11 00:05:33;;;;;;;108.90;33.40;;;;;;;;;;5074145;28;20199;-65
2022/12/11 00:08:00;;;;;;;93.80;35.78;;;;;;;;;;5074087;28;20196;-65
2022/12/11 00:10:29;;;;;;;95.88;34.97;;;;;;;;;;5074003;28;20663;-65
2022/12/11 00:12:56;;;;;;;99.63;34.10;;;;;;;;;;5074079;28;20199;-65
2022/12/11 00:15:23;;;;;;;95.78;33.85;;;;;;;;;;5074136;28;20197;-65
2022/12/11 00:17:50;;;;;;;111.60;33.10;;;;;;;;;;5073635;28;20234;-65
2022/12/11 00:20:18;;;;;;;94.18;32.60;;;;;;;;;;5073637;28;20199;-65
2022/12/11 00:22:45;;;;;;;88.63;33.10;;;;;;;;;;5073580;28;20670;-64
2022/12/11 00:25:12;;;;;;;97.38;29.80;;;;;;;;;;5073833;28;20202;-65
2022/12/11 00:27:41;;;;;;;98.63;32.90;;;;;;;;;;5074180;28;20241;-65
2022/12/11 00:30:08;;;;;;;86.70;30.58;;;;;;;;;;5073406;28;20755;-65
2022/12/11 00:32:35;;;;;;;92.32;28.58;;;;;;;;;;5073762;28;20571;-65
2022/12/11 00:35:03;;;;;;;97.10;32.05;;;;;;;;;;5073690;28;20205;-65
2022/12/11 00:37:30;;;;;;;97.57;29.30;;;;;;;;;;5073412;28;20199;-65
2022/12/11 00:39:57;;;;;;;90.93;31.08;;;;;;;;;;5073267;28;20627;-66
2022/12/11 00:42:24;;;;;;;97.10;36.15;;;;;;;;;;5073445;28;20699;-65
2022/12/11 00:44:54;;;;;;;95.85;31.40;;;;;;;;;;5073436;28;20222;-65
2022/12/11 00:47:22;;;;;;;90.45;33.88;;;;;;;;;;5073985;28;20252;-65
2022/12/11 00:49:49;;;;;;;106.13;35.15;;;;;;;;;;5073063;28;20202;-65
2022/12/11 00:52:17;;;;;;;96.00;30.45;;;;;;;;;;5073148;28;20205;-65
2022/12/11 00:54:44;;;;;;;103.78;32.92;;;;;;;;;;5073535;28;20203;-65
2022/12/11 00:57:11;;;;;;;100.50;33.97;;;;;;;;;;5073053;28;20194;-65
2022/12/11 00:59:38;;;;;;;89.47;32.85;;;;;;;;;;5072965;28;20194;-65
2022/12/11 01:02:07;;;;;;;110.30;35.08;;;;;;;;;;5073452;28;20194;-65
2022/12/11 01:04:36;;;;;;;91.18;33.40;;;;;;;;;;5073164;28;20191;-65
2022/12/11 01:07:03;;;;;;;108.28;37.05;;;;;;;;;;5072852;28;20220;-65
2022/12/11 01:12:15;;;;;;;99.05;29.73;;;;;;;;;;5073405;28;20643;-65
2022/12/11 01:14:42;;;;;;;76.35;27.63;;;;;;;;;;5073140;28;20196;-65
2022/12/11 01:17:11;;;;;;;94.40;28.35;;;;;;;;;;5073346;28;20607;-65
2022/12/11 01:19:38;;;;;;;79.38;28.33;;;;;;;;;;5073036;28;20198;-65
2022/12/11 01:22:05;;;;;;;96.30;29.15;;;;;;;;;;5073017;28;20701;-65
2022/12/11 01:24:33;;;;;;;92.50;31.10;;;;;;;;;;5072808;28;20277;-65
2022/12/11 01:27:01;;;;;;;83.85;28.30;;;;;;;;;;5073037;28;20218;-65
2022/12/11 01:29:28;;;;;;;84.10;30.17;;;;;;;;;;5072995;28;20260;-65
2022/12/11 01:31:55;;;;;;;94.50;33.22;;;;;;;;;;5073027;28;20290;-65
2022/12/11 01:34:24;;;;;;;100.05;31.50;;;;;;;;;;5072919;28;20290;-65
2022/12/11 01:36:53;;;;;;;82.25;29.83;;;;;;;;;;5072936;28;20195;-65
2022/12/11 01:39:20;;;;;;;82.80;30.15;;;;;;;;;;5073145;28;20197;-65
2022/12/11 01:41:47;;;;;;;75.57;28.30;;;;;;;;;;5072712;28;20236;-65
2022/12/11 01:44:29;;;;;;;76.88;30.85;;;;;;;;;;5072847;28;20198;-65
2022/12/11 01:46:57;;;;;;;75.60;29.33;;;;;;;;;;5072481;28;20547;-65
2022/12/11 01:49:26;;;;;;;97.75;31.02;;;;;;;;;;5072749;28;20190;-65
2022/12/11 01:51:55;;;;;;;77.22;27.17;;;;;;;;;;5072921;28;20711;-65
2022/12/11 01:54:24;;;;;;;78.82;31.65;;;;;;;;;;5072874;28;20195;-65
2022/12/11 01:56:52;;;;;;;68.47;24.08;;;;;;;;;;5073337;28;20544;-65
2022/12/11 01:59:23;;;;;;;82.82;28.73;;;;;;;;;;5072801;28;20285;-65
2022/12/11 02:01:51;;;;;;;65.40;23.83;;;;;;;;;;5072988;28;20191;-65
2022/12/11 02:04:19;;;;;;;81.50;26.98;;;;;;;;;;5072638;28;20614;-65
2022/12/11 02:06:49;;;;;;;61.80;24.20;;;;;;;;;;5072898;28;20215;-66
2022/12/11 02:09:17;;;;;;;66.43;26.88;;;;;;;;;;5072544;28;20198;-65
2022/12/11 02:11:53;;;;;;;71.35;25.73;;;;;;;;;;5073250;28;20199;-65
2022/12/11 02:14:25;;;;;;;66.82;24.88;;;;;;;;;;5072606;28;20182;-65
2022/12/11 02:16:55;;;;;;;67.05;25.10;;;;;;;;;;5072386;28;20649;-65
2022/12/11 02:19:31;;;;;;;55.30;24.42;;;;;;;;;;5072741;28;20282;-64
2022/12/11 02:22:03;;;;;;;59.22;25.20;;;;;;;;;;5074658;28;20187;-64
2022/12/11 02:24:36;;;;;;;69.43;25.45;;;;;;;;;;5076161;28;20188;-65
2022/12/11 02:27:11;;;;;;;64.70;24.35;;;;;;;;;;5076884;28;20216;-65
2022/12/11 02:29:43;;;;;;;66.95;23.80;;;;;;;;;;5075688;28;20190;-65
2022/12/11 02:32:11;;;;;;;56.65;23.58;;;;;;;;;;5076857;28;20528;-65
2022/12/11 02:34:41;;;;;;;64.07;24.38;;;;;;;;;;5075800;28;20209;-66
2022/12/11 02:37:12;;;;;;;63.10;26.25;;;;;;;;;;5076183;28;20616;-65
2022/12/11 02:39:41;;;;;;;78.32;25.67;;;;;;;;;;5075995;28;20190;-65
2022/12/11 02:42:08;;;;;;;61.90;26.20;;;;;;;;;;5075615;28;20238;-66
2022/12/11 02:44:36;;;;;;;74.00;25.48;;;;;;;;;;5076318;28;20196;-65
2022/12/11 02:47:06;;;;;;;67.80;24.63;;;;;;;;;;5075560;28;20237;-66
2022/12/11 02:49:34;;;;;;;55.78;26.92;;;;;;;;;;5075880;28;20548;-65
2022/12/11 02:52:04;;;;;;;63.35;28.80;;;;;;;;;;5075574;28;20201;-65
2022/12/11 02:54:33;;;;;;;68.60;30.00;;;;;;;;;;5075625;28;20190;-65
2022/12/11 02:57:03;;;;;;;67.65;28.52;;;;;;;;;;5075574;28;20618;-65
2022/12/11 02:59:31;;;;;;;68.65;25.38;;;;;;;;;;5075605;28;20247;-65
2022/12/11 03:01:58;;;;;;;71.85;28.55;;;;;;;;;;5075400;28;20224;-65
2022/12/11 03:04:27;;;;;;;62.05;26.00;;;;;;;;;;5075615;28;20199;-65
2022/12/11 03:06:58;;;;;;;69.50;27.98;;;;;;;;;;5075268;28;20219;-65
2022/12/11 03:09:26;;;;;;;61.00;28.77;;;;;;;;;;5075120;28;20189;-65
2022/12/11 03:11:53;;;;;;;59.70;24.38;;;;;;;;;;5074868;28;20202;-65
2022/12/11 03:14:20;;;;;;;54.33;25.95;;;;;;;;;;5074902;28;20205;-65
2022/12/11 03:16:54;;;;;;;72.60;24.85;;;;;;;;;;5074883;28;20209;-65
2022/12/11 03:19:24;;;;;;;65.65;23.85;;;;;;;;;;5074946;28;20240;-65
2022/12/11 03:21:54;;;;;;;66.88;23.55;;;;;;;;;;5074912;28;20187;-65
2022/12/11 03:24:27;;;;;;;61.15;24.70;;;;;;;;;;5075286;28;20204;-65
2022/12/11 03:26:56;;;;;;;69.60;27.98;;;;;;;;;;5074977;28;20217;-65
2022/12/11 03:29:25;;;;;;;66.40;27.92;;;;;;;;;;5074638;28;20191;-65
2022/12/11 03:31:55;;;;;;;57.30;24.05;;;;;;;;;;5074786;28;20194;-65
2022/12/11 03:34:24;;;;;;;57.13;22.65;;;;;;;;;;5074245;28;20628;-64
2022/12/11 03:36:52;;;;;;;62.53;24.67;;;;;;;;;;5074750;28;20297;-64
2022/12/11 03:39:22;;;;;;;62.85;24.80;;;;;;;;;;5074406;28;20205;-65
2022/12/11 03:41:51;;;;;;;61.70;25.92;;;;;;;;;;5074327;28;20236;-65
2022/12/11 03:44:19;;;;;;;66.97;25.92;;;;;;;;;;5075196;28;20202;-65
2022/12/11 03:46:47;;;;;;;62.45;23.23;;;;;;;;;;5074476;28;20540;-64
2022/12/11 03:49:16;;;;;;;53.78;23.20;;;;;;;;;;5074569;28;20194;-64
2022/12/11 03:51:45;;;;;;;65.65;22.83;;;;;;;;;;5074853;28;20199;-65
2022/12/11 03:54:12;;;;;;;63.28;23.65;;;;;;;;;;5074613;28;20324;-65
2022/12/11 03:56:42;;;;;;;64.07;24.00;;;;;;;;;;5074543;28;20194;-65
2022/12/11 03:59:09;;;;;;;60.22;21.15;;;;;;;;;;5074847;28;20217;-65
2022/12/11 04:01:36;;;;;;;47.72;21.33;;;;;;;;;;5074762;28;20205;-63
2022/12/11 04:04:03;;;;;;;58.78;21.05;;;;;;;;;;5074245;28;20199;-65
2022/12/11 04:06:30;;;;;;;52.33;19.60;;;;;;;;;;5073762;28;20190;-65
2022/12/11 04:08:58;;;;;;;54.88;21.77;;;;;;;;;;5073935;28;20648;-65
2022/12/11 04:11:34;;;;;;;57.03;22.23;;;;;;;;;;5074239;28;20201;-65
2022/12/11 04:16:47;;;;;;;62.00;22.08;;;;;;;;;;5073926;28;20652;-65
2022/12/11 04:24:44;;;;;;;58.05;21.02;;;;;;;;;;5073760;28;20642;-65
2022/12/11 04:27:12;;;;;;;52.15;20.70;;;;;;;;;;5073593;28;20316;-65
2022/12/11 04:29:40;;;;;;;68.20;22.92;;;;;;;;;;5073402;28;20194;-65
2022/12/11 04:32:07;;;;;;;51.75;19.08;;;;;;;;;;5073278;28;20194;-65
2022/12/11 04:34:34;;;;;;;58.85;21.48;;;;;;;;;;5073375;28;20198;-65
2022/12/11 04:37:02;;;;;;;55.17;22.65;;;;;;;;;;5073453;28;20664;-65
2022/12/11 04:39:29;;;;;;;52.70;19.85;;;;;;;;;;5073689;28;20209;-65
2022/12/11 04:41:56;;;;;;;61.38;20.05;;;;;;;;;;5073562;28;20230;-65
2022/12/11 04:44:23;;;;;;;51.88;21.65;;;;;;;;;;5073515;28;20191;-65
2022/12/11 04:46:52;;;;;;;52.20;19.13;;;;;;;;;;5073075;28;20230;-65
2022/12/11 04:49:19;;;;;;;55.35;20.90;;;;;;;;;;5073505;28;20208;-65
2022/12/11 04:51:46;;;;;;;44.80;19.63;;;;;;;;;;5072602;28;20202;-65
2022/12/11 04:54:13;;;;;;;66.72;21.60;;;;;;;;;;5072095;28;20205;-65
2022/12/11 04:56:40;;;;;;;59.10;20.70;;;;;;;;;;5072523;28;20319;-66
2022/12/11 04:59:08;;;;;;;46.30;17.63;;;;;;;;;;5072129;28;20194;-66
2022/12/11 05:01:35;;;;;;;56.53;20.63;;;;;;;;;;5072804;28;20559;-65
2022/12/11 05:04:03;;;;;;;52.38;21.00;;;;;;;;;;5072531;28;20198;-65
2022/12/11 05:06:30;;;;;;;41.00;18.00;;;;;;;;;;5072706;28;20281;-66
2022/12/11 05:08:58;;;;;;;50.03;19.13;;;;;;;;;;5072549;28;20222;-66
2022/12/11 05:11:25;;;;;;;47.33;18.63;;;;;;;;;;5072713;28;20216;-65
2022/12/11 05:13:52;;;;;;;43.58;18.13;;;;;;;;;;5072789;28;20558;-66
2022/12/11 05:16:19;;;;;;;44.85;16.33;;;;;;;;;;5072651;28;20191;-65
2022/12/11 05:18:47;;;;;;;55.35;21.27;;;;;;;;;;5072975;28;20194;-66
2022/12/11 05:21:16;;;;;;;53.40;20.02;;;;;;;;;;5077038;28;20244;-65
2022/12/11 05:23:43;;;;;;;43.88;18.77;;;;;;;;;;5093103;28;20293;-65
2022/12/11 05:26:12;;;;;;;48.85;20.17;;;;;;;;;;5092761;28;20655;-65
2022/12/11 05:28:40;;;;;;;38.53;16.92;;;;;;;;;;5092950;28;20228;-65
2022/12/11 05:31:08;;;;;;;41.22;17.88;;;;;;;;;;5092737;28;20669;-65
2022/12/11 05:33:36;;;;;;;50.58;17.65;;;;;;;;;;5092745;28;20200;-65
2022/12/11 05:36:03;;;;;;;38.40;15.85;;;;;;;;;;5092503;28;20194;-66
2022/12/11 05:38:31;;;;;;;40.50;15.07;;;;;;;;;;5092908;28;20204;-65
2022/12/11 05:40:59;;;;;;;35.30;13.90;;;;;;;;;;5092640;28;20682;-65
2022/12/11 05:43:27;;;;;;;41.10;16.23;;;;;;;;;;5092915;28;20594;-65
2022/12/11 05:45:54;;;;;;;41.03;16.05;;;;;;;;;;5092658;28;20206;-65
2022/12/11 05:48:22;;;;;;;34.05;13.93;;;;;;;;;;5092865;28;20228;-65
2022/12/11 05:50:57;;;;;;;42.45;15.25;;;;;;;;;;5092741;28;20198;-65
2022/12/11 05:53:25;;;;;;;37.28;17.73;;;;;;;;;;5092892;28;20186;-66
2022/12/11 05:55:53;;;;;;;42.33;17.17;;;;;;;;;;5092026;28;20648;-65
2022/12/11 05:58:20;;;;;;;43.92;15.15;;;;;;;;;;5096445;28;20211;-65
2022/12/11 06:00:48;;;;;;;41.47;15.20;;;;;;;;;;5096648;28;20230;-65
2022/12/11 06:03:15;;;;;;;41.28;16.98;;;;;;;;;;5096552;28;20630;-65
2022/12/11 06:05:42;;;;;;;40.13;16.45;;;;;;;;;;5086236;28;20194;-65
2022/12/11 06:08:10;;;;;;;32.65;14.38;;;;;;;;;;5096239;28;20221;-65
2022/12/11 06:10:37;;;;;;;32.20;15.15;;;;;;;;;;5096182;28;20204;-65
2022/12/11 06:13:05;;;;;;;34.85;14.32;;;;;;;;;;5096871;28;20200;-65
2022/12/11 06:15:33;;;;;;;37.00;15.75;;;;;;;;;;5095717;28;20201;-65
2022/12/11 06:18:00;;;;;;;40.05;16.23;;;;;;;;;;5095851;28;20205;-65
2022/12/11 06:20:27;;;;;;;40.53;15.80;;;;;;;;;;5096488;28;20196;-65
2022/12/11 06:22:55;;;;;;;33.00;15.18;;;;;;;;;;5096152;28;20298;-65
2022/12/11 06:25:22;;;;;;;33.25;14.25;;;;;;;;;;5096425;28;20200;-65
2022/12/11 06:27:49;;;;;;;49.92;16.30;;;;;;;;;;5095858;28;20219;-65
2022/12/11 06:30:18;;;;;;;36.72;14.55;;;;;;;;;;5096240;28;20280;-65
2022/12/11 06:32:45;;;;;;;37.78;13.77;;;;;;;;;;5096679;28;20196;-65
2022/12/11 06:35:13;;;;;;;33.40;14.95;;;;;;;;;;5095671;28;20193;-65
2022/12/11 06:37:40;;;;;;;31.70;13.23;;;;;;;;;;5095437;28;20197;-65
2022/12/11 06:40:10;;;;;;;36.85;16.48;;;;;;;;;;5095665;28;20679;-65
2022/12/11 06:42:37;;;;;;;35.75;16.05;;;;;;;;;;5095593;28;20575;-65
2022/12/11 06:45:05;;;;;;;34.80;14.10;;;;;;;;;;5095923;28;20199;-65
2022/12/11 06:47:33;;;;;;;38.75;14.65;;;;;;;;;;5095488;28;20220;-65
2022/12/11 06:50:01;;;;;;;37.75;16.88;;;;;;;;;;5096080;28;20299;-65
2022/12/11 06:52:29;;;;;;;32.38;16.42;;;;;;;;;;5095727;28;20236;-65
2022/12/11 06:54:56;;;;;;;37.78;14.90;;;;;;;;;;5095467;28;20190;-64
2022/12/11 06:57:23;;;;;;;34.45;15.60;;;;;;;;;;5095516;28;20661;-65
2022/12/11 06:59:50;;;;;;;37.58;15.25;;;;;;;;;;5095841;28;20194;-65
2022/12/11 07:02:18;;;;;;;42.92;16.15;;;;;;;;;;5095901;28;20210;-65
2022/12/11 07:04:47;;;;;;;34.45;13.95;;;;;;;;;;5095226;28;20197;-65
2022/12/11 07:07:14;;;;;;;37.72;16.15;;;;;;;;;;5095266;28;20288;-65
2022/12/11 07:09:41;;;;;;;34.45;15.05;;;;;;;;;;5094851;28;20581;-66
2022/12/11 07:12:09;;;;;;;39.00;17.13;;;;;;;;;;5095756;28;20200;-65
2022/12/11 07:14:36;;;;;;;35.85;14.68;;;;;;;;;;5095675;28;20198;-65
2022/12/11 07:17:03;;;;;;;35.65;15.10;;;;;;;;;;5095434;28;20198;-65
2022/12/11 07:19:32;;;;;;;34.30;14.80;;;;;;;;;;5095534;28;20290;-65
2022/12/11 07:22:00;;;;;;;44.88;16.90;;;;;;;;;;5095505;28;20286;-65
2022/12/11 07:24:27;;;;;;;44.55;14.85;;;;;;;;;;5094941;28;20202;-66
2022/12/11 07:26:55;;;;;;;40.92;15.15;;;;;;;;;;5095460;28;20282;-65
2022/12/11 07:29:22;;;;;;;33.38;15.10;;;;;;;;;;5077490;28;20210;-65
2022/12/11 07:31:49;;;;;;;34.60;15.60;;;;;;;;;;5074650;28;20651;-65
2022/12/11 07:34:16;;;;;;;34.50;15.48;;;;;;;;;;5075140;28;20199;-65
2022/12/11 07:36:44;;;;;;;27.58;15.15;;;;;;;;;;5075107;28;20666;-66
2022/12/11 07:39:13;;;;;;;36.05;15.65;;;;;;;;;;5075004;28;20206;-65
2022/12/11 07:41:40;;;;;;;30.10;14.00;;;;;;;;;;5074791;28;20275;-65
2022/12/11 07:44:07;;;;;;;34.88;14.90;;;;;;;;;;5074827;28;20194;-65
2022/12/11 07:46:35;;;;;;;30.83;13.88;;;;;;;;;;5074331;28;20194;-65
2022/12/11 07:49:02;;;;;;;36.30;15.90;;;;;;;;;;5074442;28;20228;-65
2022/12/11 07:51:31;;;;;;;45.10;18.02;;;;;;;;;;5074511;28;20243;-65
2022/12/11 07:53:58;;;;;;;38.70;14.75;;;;;;;;;;5074136;28;20191;-65
2022/12/11 07:56:28;;;;;;;32.55;15.60;;;;;;;;;;5074003;28;20212;-65
2022/12/11 07:58:55;;;;;;;31.90;15.95;;;;;;;;;;5074333;28;20199;-65
2022/12/11 08:01:24;;;;;;;30.88;15.15;;;;;;;;;;5074358;28;20190;-65
2022/12/11 08:03:52;;;;;;;30.63;14.68;;;;;;;;;;5073934;28;20198;-65
2022/12/11 08:06:20;;;;;;;35.50;15.65;;;;;;;;;;5074156;28;20245;-65
2022/12/11 08:08:47;;;;;;;39.40;14.85;;;;;;;;;;5074123;28;20518;-64
2022/12/11 08:11:15;;;;;;;32.45;14.45;;;;;;;;;;5074013;28;20203;-66
2022/12/11 08:13:44;;;;;;;32.25;13.57;;;;;;;;;;5073699;28;20649;-65
2022/12/11 08:16:12;;;;;;;38.42;14.85;;;;;;;;;;5073548;28;20205;-65
2022/12/11 08:18:40;;;;;;;41.35;16.88;;;;;;;;;;5073969;28;20237;-66
2022/12/11 08:21:07;;;;;;;35.78;14.95;;;;;;;;;;5072799;28;20194;-66
2022/12/11 08:23:34;;;;;;;36.67;16.05;;;;;;;;;;5072117;28;20202;-65
2022/12/11 08:26:02;;;;;;;32.65;15.77;;;;;;;;;;5072959;28;20198;-65
2022/12/11 08:28:30;;;;;;;38.05;16.15;;;;;;;;;;5072809;28;20737;-65
2022/12/11 08:30:59;;;;;;;31.83;16.45;;;;;;;;;;5073012;28;20190;-65
2022/12/11 08:33:26;;;;;;;37.80;15.68;;;;;;;;;;5072743;28;20195;-65
2022/12/11 08:35:53;;;;;;;50.10;18.55;;;;;;;;;;5073129;28;20191;-65
2022/12/11 08:38:20;;;;;;;36.47;14.80;;;;;;;;;;5073686;28;20206;-65
2022/12/11 08:40:48;;;;;;;41.97;17.63;;;;;;;;;;5073309;28;20565;-65
2022/12/11 08:43:15;;;;;;;35.85;17.85;;;;;;;;;;5073537;28;20258;-65
2022/12/11 08:45:42;;;;;;;40.85;16.60;;;;;;;;;;5072831;28;20241;-66
2022/12/11 08:48:10;;;;;;;41.20;16.92;;;;;;;;;;5073082;28;20542;-65
2022/12/11 08:50:38;;;;;;;36.15;17.00;;;;;;;;;;5073186;28;20202;-65
2022/12/11 08:53:05;;;;;;;48.58;17.98;;;;;;;;;;5089115;28;20198;-65
2022/12/11 08:55:32;;;;;;;39.70;18.23;;;;;;;;;;5093326;28;20199;-65
2022/12/11 08:57:59;;;;;;;42.72;17.67;;;;;;;;;;5093459;28;20200;-65
2022/12/11 09:00:27;;;;;;;43.55;16.45;;;;;;;;;;5093061;28;20195;-65
2022/12/11 09:02:54;;;;;;;41.40;19.75;;;;;;;;;;5093367;28;20626;-66
2022/12/11 09:05:22;;;;;;;50.00;18.25;;;;;;;;;;5093193;28;20199;-65
2022/12/11 09:07:50;;;;;;;39.55;17.42;;;;;;;;;;5093063;28;20655;-65
2022/12/11 09:10:17;;;;;;;43.22;17.63;;;;;;;;;;5092910;28;20194;-65
2022/12/11 09:12:44;;;;;;;48.95;18.00;;;;;;;;;;5092549;28;20656;-66
2022/12/11 09:15:12;;;;;;;40.03;17.80;;;;;;;;;;5093145;28;20571;-65
2022/12/11 09:17:39;;;;;;;41.88;18.42;;;;;;;;;;5092814;28;20267;-65
2022/12/11 09:20:07;;;;;;;43.33;20.35;;;;;;;;;;5092924;28;20194;-66
2022/12/11 09:22:35;;;;;;;43.05;16.88;;;;;;;;;;5093001;28;20191;-66
2022/12/11 09:25:03;;;;;;;60.67;19.77;;;;;;;;;;5093393;28;20226;-66
2022/12/11 09:27:30;;;;;;;48.85;17.58;;;;;;;;;;5092933;28;20198;-66
2022/12/11 09:29:57;;;;;;;46.47;19.05;;;;;;;;;;5093067;28;20218;-65
2022/12/11 09:32:24;;;;;;;44.63;18.92;;;;;;;;;;5095004;28;20356;-65
2022/12/11 09:34:51;;;;;;;42.10;19.23;;;;;;;;;;5096877;28;20656;-69
2022/12/11 09:37:19;;;;;;;49.05;19.58;;;;;;;;;;5097226;28;20270;-64
2022/12/11 09:39:47;;;;;;;43.78;19.77;;;;;;;;;;5096993;28;20221;-64
2022/12/11 09:42:16;;;;;;;49.10;19.98;;;;;;;;;;5096989;28;20226;-65
2022/12/11 09:44:46;;;;;;;49.65;19.48;;;;;;;;;;5097195;28;20201;-68
2022/12/11 09:47:17;;;;;;;53.50;20.35;;;;;;;;;;5096695;28;20195;-65
2022/12/11 09:49:45;;;;;;;44.80;18.50;;;;;;;;;;5096846;28;20207;-65
2022/12/11 09:52:14;;;;;;;51.25;19.58;;;;;;;;;;5096479;28;20280;-65
2022/12/11 09:54:45;;;;;;;58.03;21.92;;;;;;;;;;5096949;28;20200;-64
2022/12/11 09:57:20;;;;;;;46.03;19.80;;;;;;;;;;5097175;28;20183;-65
2022/12/11 09:59:58;;;;;;;51.90;21.65;;;;;;;;;;5097481;28;20186;-65
2022/12/11 10:02:30;;;;;;;53.33;21.92;;;;;;;;;;5097065;28;20180;-65
2022/12/11 10:05:03;;;;;;;54.85;22.77;;;;;;;;;;5096822;28;20265;-64
2022/12/11 10:07:35;;;;;;;54.75;20.02;;;;;;;;;;5096461;28;20249;-64
2022/12/11 10:10:06;;;;;;;56.97;24.25;;;;;;;;;;5096592;28;20207;-64
2022/12/11 10:12:38;;;;;;;49.35;19.50;;;;;;;;;;5075330;28;20199;-64
2022/12/11 10:15:20;;;;;;;61.78;24.10;;;;;;;;;;5076176;28;20189;-64
2022/12/11 10:17:47;;;;;;;59.08;21.40;;;;;;;;;;5076129;28;20299;-65
2022/12/11 10:20:19;;;;;;;57.50;22.90;;;;;;;;;;5075944;28;20757;-64
2022/12/11 10:22:47;;;;;;;54.90;21.80;;;;;;;;;;5076249;28;20212;-65
2022/12/11 10:25:17;;;;;;;53.90;22.67;;;;;;;;;;5075900;28;20195;-64
2022/12/11 10:27:46;;;;;;;49.45;23.38;;;;;;;;;;5075947;28;20280;-64
2022/12/11 10:30:15;;;;;;;63.80;23.45;;;;;;;;;;5075861;28;20223;-64
2022/12/11 10:32:46;;;;;;;52.50;22.60;;;;;;;;;;5074914;28;20207;-64
2022/12/11 10:35:18;;;;;;;60.50;24.63;;;;;;;;;;5075375;28;20202;-65
2022/12/11 10:37:46;;;;;;;51.10;22.65;;;;;;;;;;5076092;28;20188;-65
2022/12/11 10:40:13;;;;;;;67.20;26.35;;;;;;;;;;5075846;28;20198;-65
2022/12/11 10:42:40;;;;;;;61.05;25.08;;;;;;;;;;5055099;28;20242;-64
2022/12/11 10:45:16;;;;;;;62.88;26.23;;;;;;;;;;5055718;28;20556;-66
2022/12/11 10:47:43;;;;;;;61.58;24.00;;;;;;;;;;5055691;28;20196;-64
2022/12/11 10:50:23;;;;;;;64.70;24.17;;;;;;;;;;5055136;28;20221;-64
2022/12/11 10:52:51;;;;;;;71.35;25.75;;;;;;;;;;5054855;28;20201;-66
2022/12/11 10:55:19;;;;;;;57.63;23.55;;;;;;;;;;5054546;28;20658;-65
2022/12/11 10:57:54;;;;;;;70.78;26.80;;;;;;;;;;5055378;28;20195;-64
2022/12/11 11:00:31;;;;;;;58.83;25.02;;;;;;;;;;5055693;28;20201;-65
2022/12/11 11:02:58;;;;;;;54.70;24.77;;;;;;;;;;5055097;28;20184;-65
2022/12/11 11:05:29;;;;;;;57.22;23.10;;;;;;;;;;5054689;28;20200;-65
2022/12/11 11:08:04;;;;;;;67.15;23.73;;;;;;;;;;5054941;28;20566;-65
2022/12/11 11:10:31;;;;;;;62.95;25.60;;;;;;;;;;5060133;28;20228;-64
2022/12/11 11:13:01;;;;;;;56.35;24.52;;;;;;;;;;5094779;28;20199;-65
2022/12/11 11:15:31;;;;;;;69.03;23.70;;;;;;;;;;5095115;28;20545;-64
2022/12/11 11:18:01;;;;;;;66.40;26.20;;;;;;;;;;5095277;28;20196;-64
2022/12/11 11:20:30;;;;;;;59.38;25.92;;;;;;;;;;5095416;28;20289;-64
2022/12/11 11:22:58;;;;;;;60.83;25.77;;;;;;;;;;5095033;28;20290;-64
2022/12/11 11:25:27;;;;;;;71.35;26.77;;;;;;;;;;5095507;28;20526;-64
2022/12/11 11:27:56;;;;;;;60.05;25.02;;;;;;;;;;5095327;28;20196;-64
2022/12/11 11:30:24;;;;;;;71.65;24.92;;;;;;;;;;5094918;28;20224;-65
2022/12/11 11:32:55;;;;;;;55.83;25.25;;;;;;;;;;5094277;28;20564;-64
2022/12/11 11:35:24;;;;;;;57.67;24.52;;;;;;;;;;5094979;28;20210;-64
2022/12/11 11:37:58;;;;;;;66.05;25.80;;;;;;;;;;5094825;28;20235;-64
2022/12/11 11:40:27;;;;;;;57.13;23.05;;;;;;;;;;5094605;28;20197;-64
2022/12/11 11:42:58;;;;;;;72.43;26.17;;;;;;;;;;5094113;28;20231;-64
2022/12/11 11:45:28;;;;;;;68.13;26.48;;;;;;;;;;5095289;28;20189;-65
2022/12/11 11:48:01;;;;;;;61.05;26.67;;;;;;;;;;5094932;28;20196;-64
2022/12/11 11:50:31;;;;;;;61.40;25.80;;;;;;;;;;5094266;28;20223;-64
2022/12/11 11:53:03;;;;;;;61.03;24.02;;;;;;;;;;5094098;28;20185;-64
2022/12/11 11:55:35;;;;;;;62.13;24.80;;;;;;;;;;5093618;28;20278;-64
2022/12/11 11:58:04;;;;;;;58.65;25.98;;;;;;;;;;5094777;28;20189;-65
2022/12/11 12:00:32;;;;;;;63.50;25.52;;;;;;;;;;5094216;28;20212;-64
2022/12/11 12:03:01;;;;;;;64.63;24.35;;;;;;;;;;5094257;28;20604;-64
2022/12/11 12:05:31;;;;;;;52.72;23.55;;;;;;;;;;5094062;28;20190;-64
2022/12/11 12:08:05;;;;;;;58.67;25.40;;;;;;;;;;5094404;28;20199;-64
2022/12/11 12:10:37;;;;;;;63.33;25.45;;;;;;;;;;5094031;28;20225;-64
2022/12/11 12:13:06;;;;;;;73.32;27.83;;;;;;;;;;5093615;28;20278;-64
2022/12/11 12:15:38;;;;;;;52.55;24.13;;;;;;;;;;5093858;28;20192;-64
2022/12/11 12:18:10;;;;;;;65.68;26.77;;;;;;;;;;5094011;28;20187;-64
2022/12/11 12:20:42;;;;;;;70.72;27.80;;;;;;;;;;5093736;28;20189;-64
2022/12/11 12:23:33;;;;;;;64.90;29.02;;;;;;;;;;5093751;28;20584;-64
2022/12/11 12:26:07;;;;;;;76.22;26.42;;;;;;;;;;5078941;28;20289;-64
2022/12/11 12:28:39;;;;;;;68.03;26.30;;;;;;;;;;5093869;28;20188;-65
2022/12/11 12:31:13;;;;;;;61.38;26.02;;;;;;;;;;5093253;28;20210;-64
2022/12/11 12:33:48;;;;;;;51.92;24.35;;;;;;;;;;5092894;28;20702;-65
2022/12/11 12:36:18;;;;;;;54.90;24.92;;;;;;;;;;5093911;28;20174;-65
2022/12/11 12:38:50;;;;;;;71.22;29.10;;;;;;;;;;5093586;28;20198;-65
2022/12/11 12:41:19;;;;;;;66.18;27.00;;;;;;;;;;5093247;28;20231;-65
2022/12/11 12:43:53;;;;;;;70.15;26.80;;;;;;;;;;5093113;28;20230;-64
2022/12/11 12:46:26;;;;;;;59.45;26.60;;;;;;;;;;5093840;28;20278;-64
2022/12/11 12:48:56;;;;;;;56.25;23.80;;;;;;;;;;5093229;28;20198;-65
2022/12/11 12:51:24;;;;;;;59.97;24.25;;;;;;;;;;5093071;28;20187;-65
2022/12/11 12:53:54;;;;;;;61.35;24.00;;;;;;;;;;5093204;28;20202;-64
2022/12/11 12:56:21;;;;;;;63.40;27.95;;;;;;;;;;5093913;28;20206;-64
2022/12/11 12:58:49;;;;;;;62.15;24.23;;;;;;;;;;5093444;28;20197;-64
2022/12/11 13:01:18;;;;;;;66.97;26.92;;;;;;;;;;5093458;28;20736;-65
2022/12/11 13:03:54;;;;;;;55.78;25.90;;;;;;;;;;5093470;28;20226;-65
2022/12/11 13:06:34;;;;;;;76.93;24.92;;;;;;;;;;5093415;28;20253;-65
2022/12/11 13:09:11;;;;;;;56.22;26.38;;;;;;;;;;5093414;28;20190;-65
2022/12/11 13:11:38;;;;;;;55.45;25.55;;;;;;;;;;5093504;28;20201;-65
2022/12/11 13:14:07;;;;;;;53.97;23.02;;;;;;;;;;5093452;28;20194;-64
2022/12/11 13:16:37;;;;;;;76.57;27.50;;;;;;;;;;5093376;28;20223;-64
2022/12/11 13:19:16;;;;;;;75.85;26.40;;;;;;;;;;5093172;28;20602;-64
2022/12/11 13:21:55;;;;;;;65.43;26.45;;;;;;;;;;5093079;28;20659;-65
2022/12/11 13:24:25;;;;;;;53.08;23.50;;;;;;;;;;5093354;28;20186;-64
2022/12/11 13:26:53;;;;;;;57.13;27.33;;;;;;;;;;5092970;28;20638;-64
2022/12/11 13:29:30;;;;;;;68.50;27.00;;;;;;;;;;5092982;28;20287;-64
2022/12/11 13:31:58;;;;;;;68.80;27.15;;;;;;;;;;5093115;28;20203;-64
2022/12/11 13:34:25;;;;;;;57.72;24.27;;;;;;;;;;5092650;28;20204;-65
2022/12/11 13:36:56;;;;;;;62.47;25.85;;;;;;;;;;5093086;28;20272;-64
2022/12/11 13:39:24;;;;;;;61.95;26.85;;;;;;;;;;5092799;28;20647;-65
2022/12/11 13:41:54;;;;;;;60.20;23.90;;;;;;;;;;5093115;28;20233;-64
2022/12/11 13:44:24;;;;;;;58.83;26.40;;;;;;;;;;5093040;28;20194;-65
2022/12/11 13:46:52;;;;;;;59.40;26.35;;;;;;;;;;5093792;28;20211;-65
2022/12/11 13:49:21;;;;;;;57.75;24.38;;;;;;;;;;5092855;28;20197;-65
2022/12/11 13:51:53;;;;;;;69.18;28.50;;;;;;;;;;5093003;28;20602;-65
2022/12/11 13:54:21;;;;;;;61.78;28.33;;;;;;;;;;5074818;28;20282;-64
2022/12/11 13:56:57;;;;;;;64.05;26.85;;;;;;;;;;5071871;28;20714;-64
2022/12/11 13:59:25;;;;;;;64.88;25.05;;;;;;;;;;5072592;28;20189;-64
2022/12/11 14:01:54;;;;;;;70.30;25.85;;;;;;;;;;5072621;28;20251;-64
2022/12/11 14:04:21;;;;;;;63.50;26.73;;;;;;;;;;5072128;28;20198;-64
2022/12/11 14:06:49;;;;;;;68.65;26.23;;;;;;;;;;5072024;28;20204;-64
2022/12/11 14:09:19;;;;;;;67.78;27.88;;;;;;;;;;5072460;28;20194;-64
2022/12/11 14:11:47;;;;;;;70.60;27.63;;;;;;;;;;5072640;28;20211;-64
2022/12/11 14:14:18;;;;;;;60.45;26.13;;;;;;;;;;5071632;28;20656;-65
2022/12/11 14:16:48;;;;;;;78.47;28.38;;;;;;;;;;5071840;28;20271;-64
2022/12/11 14:19:17;;;;;;;67.00;27.65;;;;;;;;;;5075894;28;20195;-64
2022/12/11 14:21:44;;;;;;;67.60;26.83;;;;;;;;;;5076063;28;20201;-65
2022/12/11 14:24:13;;;;;;;55.20;25.33;;;;;;;;;;5091059;28;20199;-65
2022/12/11 14:26:50;;;;;;;72.57;28.88;;;;;;;;;;5096199;28;20200;-64
2022/12/11 14:29:24;;;;;;;68.32;26.30;;;;;;;;;;5096642;28;20203;-65
2022/12/11 14:31:51;;;;;;;66.05;28.38;;;;;;;;;;5096243;28;20231;-66
2022/12/11 14:34:21;;;;;;;74.25;28.20;;;;;;;;;;5095894;28;20629;-64
2022/12/11 14:36:50;;;;;;;70.25;29.65;;;;;;;;;;5096018;28;20192;-65